createdAt,value
2019-04-30T00:00:06.242Z,0.00
2019-04-30T00:01:07.481Z,0.00
2019-04-30T00:02:05.794Z,0.00
2019-04-30T00:03:06.828Z,0.00
2019-04-30T00:04:06.107Z,0.00
2019-04-30T00:05:09.933Z,0.00
2019-04-30T00:06:07.509Z,0.00
2019-04-30T00:07:10.179Z,0.00
2019-04-30T00:08:06.858Z,0.00
2019-04-30T00:09:09.821Z,0.00
2019-04-30T00:10:07.225Z,0.00
2019-04-30T00:11:10.734Z,0.00
2019-04-30T00:12:07.601Z,0.00
2019-04-30T00:13:10.401Z,0.00
2019-04-30T00:14:07.969Z,0.00
2019-04-30T00:15:10.981Z,0.00
2019-04-30T00:16:08.348Z,0.00
2019-04-30T00:17:10.675Z,0.00
2019-04-30T00:18:08.719Z,0.00
2019-04-30T00:19:10.550Z,0.00
2019-04-30T00:20:09.082Z,0.00
2019-04-30T00:21:09.987Z,0.00
2019-04-30T00:22:09.449Z,0.00
2019-04-30T00:23:09.650Z,0.00
2019-04-30T00:24:10.394Z,0.00
2019-04-30T00:25:10.031Z,0.00
2019-04-30T00:26:10.592Z,0.00
2019-04-30T00:27:10.402Z,0.00
2019-04-30T00:28:10.587Z,0.00
2019-04-30T00:29:10.773Z,0.00
2019-04-30T00:30:10.980Z,0.00
2019-04-30T00:31:11.145Z,0.00
2019-04-30T00:32:11.332Z,0.00
2019-04-30T00:33:15.246Z,0.00
2019-04-30T00:34:11.702Z,0.00
2019-04-30T00:35:15.507Z,0.00
2019-04-30T00:36:12.076Z,0.00
2019-04-30T00:37:13.960Z,0.00
2019-04-30T00:38:12.446Z,0.00
2019-04-30T00:39:13.228Z,0.00
2019-04-30T00:40:12.818Z,0.00
2019-04-30T00:41:13.003Z,0.00
2019-04-30T00:42:18.714Z,0.00
2019-04-30T00:43:13.385Z,0.00
2019-04-30T00:44:15.156Z,0.00
2019-04-30T00:45:15.325Z,0.00
2019-04-30T00:46:17.315Z,0.00
2019-04-30T00:47:15.424Z,0.00
2019-04-30T00:48:19.401Z,0.00
2019-04-30T00:49:18.563Z,0.00
2019-04-30T00:50:14.998Z,0.00
2019-04-30T00:51:20.969Z,0.00
2019-04-30T00:52:15.456Z,0.00
2019-04-30T00:53:16.659Z,0.00
2019-04-30T00:54:17.689Z,0.00
2019-04-30T00:55:15.600Z,0.00
2019-04-30T00:56:19.662Z,0.00
2019-04-30T00:57:15.970Z,0.00
2019-04-30T00:58:19.692Z,0.00
2019-04-30T00:59:16.349Z,0.00
2019-04-30T01:00:19.631Z,0.00
2019-04-30T01:01:16.717Z,0.00
2019-04-30T01:02:19.969Z,0.00
2019-04-30T01:03:17.094Z,0.00
2019-04-30T01:04:19.340Z,0.00
2019-04-30T01:05:17.470Z,0.00
2019-04-30T01:06:24.650Z,0.00
2019-04-30T01:07:17.851Z,0.00
2019-04-30T01:08:21.203Z,0.00
2019-04-30T01:09:18.204Z,0.00
2019-04-30T01:10:19.655Z,0.00
2019-04-30T01:11:18.598Z,0.00
2019-04-30T01:12:25.306Z,0.00
2019-04-30T01:13:19.309Z,0.00
2019-04-30T01:14:23.135Z,0.00
2019-04-30T01:15:19.336Z,0.00
2019-04-30T01:16:19.623Z,0.00
2019-04-30T01:17:19.714Z,0.00
2019-04-30T01:18:23.618Z,0.00
2019-04-30T01:19:29.132Z,0.00
2019-04-30T01:20:24.019Z,0.00
2019-04-30T01:21:20.457Z,0.00
2019-04-30T01:22:27.871Z,0.00
2019-04-30T01:23:20.823Z,0.00
2019-04-30T01:24:23.513Z,0.00
2019-04-30T01:25:21.196Z,0.00
2019-04-30T01:26:22.860Z,0.00
2019-04-30T01:27:21.566Z,0.00
2019-04-30T01:28:24.193Z,0.00
2019-04-30T01:29:21.942Z,0.00
2019-04-30T01:30:22.838Z,0.00
2019-04-30T01:31:22.312Z,0.00
2019-04-30T01:32:22.494Z,0.00
2019-04-30T01:33:22.678Z,0.00
2019-04-30T01:34:22.871Z,0.00
2019-04-30T01:35:23.776Z,0.00
2019-04-30T01:36:23.242Z,0.00
2019-04-30T01:37:28.311Z,0.00
2019-04-30T01:38:23.610Z,0.00
2019-04-30T01:39:27.907Z,0.00
2019-04-30T01:40:23.982Z,0.00
2019-04-30T01:41:27.552Z,0.00
2019-04-30T01:42:24.346Z,0.00
2019-04-30T01:43:31.741Z,0.00
2019-04-30T01:44:24.713Z,0.00
2019-04-30T01:45:28.225Z,0.00
2019-04-30T01:46:25.083Z,0.00
2019-04-30T01:47:27.884Z,0.00
2019-04-30T01:48:25.448Z,0.00
2019-04-30T01:49:26.741Z,0.00
2019-04-30T01:50:25.815Z,0.00
2019-04-30T01:51:26.002Z,0.00
2019-04-30T01:52:29.252Z,0.00
2019-04-30T01:53:26.365Z,0.00
2019-04-30T01:54:26.555Z,0.00
2019-04-30T01:55:26.737Z,0.00
2019-04-30T01:56:28.829Z,0.00
2019-04-30T01:57:29.142Z,0.00
2019-04-30T01:58:29.966Z,0.00
2019-04-30T01:59:29.096Z,0.00
2019-04-30T02:00:29.313Z,0.00
2019-04-30T02:01:28.611Z,0.00
2019-04-30T02:02:28.643Z,0.00
2019-04-30T02:03:29.169Z,0.00
2019-04-30T02:04:28.992Z,0.00
2019-04-30T02:05:28.831Z,0.00
2019-04-30T02:06:29.462Z,0.00
2019-04-30T02:07:28.952Z,0.00
2019-04-30T02:08:29.511Z,0.00
2019-04-30T02:09:29.319Z,0.00
2019-04-30T02:10:29.506Z,0.00
2019-04-30T02:11:29.686Z,0.00
2019-04-30T02:12:29.873Z,0.00
2019-04-30T02:13:34.341Z,0.00
2019-04-30T02:14:30.246Z,0.00
2019-04-30T02:15:30.429Z,0.00
2019-04-30T02:16:30.619Z,0.00
2019-04-30T02:17:30.792Z,0.00
2019-04-30T02:18:30.975Z,0.00
2019-04-30T02:19:31.288Z,0.00
2019-04-30T02:20:31.345Z,0.00
2019-04-30T02:21:33.360Z,0.00
2019-04-30T02:22:31.713Z,0.00
2019-04-30T02:23:31.900Z,0.00
2019-04-30T02:24:32.107Z,0.00
2019-04-30T02:25:32.272Z,0.00
2019-04-30T02:26:32.456Z,0.00
2019-04-30T02:27:32.642Z,0.00
2019-04-30T02:28:32.836Z,0.00
2019-04-30T02:29:33.015Z,0.00
2019-04-30T02:30:33.204Z,0.00
2019-04-30T02:31:33.390Z,0.00
2019-04-30T02:32:33.568Z,0.00
2019-04-30T02:33:33.759Z,0.00
2019-04-30T02:34:33.937Z,0.00
2019-04-30T02:35:34.129Z,0.00
2019-04-30T02:36:34.313Z,0.00
2019-04-30T02:37:34.492Z,0.00
2019-04-30T02:38:34.675Z,0.00
2019-04-30T02:39:34.865Z,0.00
2019-04-30T02:40:35.051Z,0.00
2019-04-30T02:41:35.229Z,0.00
2019-04-30T02:42:35.419Z,0.00
2019-04-30T02:43:35.604Z,0.00
2019-04-30T02:44:35.791Z,0.00
2019-04-30T02:45:35.986Z,0.00
2019-04-30T02:46:36.166Z,0.00
2019-04-30T02:47:36.342Z,0.00
2019-04-30T02:48:39.382Z,0.00
2019-04-30T02:49:36.711Z,0.00
2019-04-30T02:50:39.208Z,0.00
2019-04-30T02:51:39.772Z,0.00
2019-04-30T02:52:37.258Z,0.00
2019-04-30T02:53:40.127Z,0.00
2019-04-30T02:54:39.656Z,0.00
2019-04-30T02:55:40.324Z,0.00
2019-04-30T02:56:40.017Z,0.00
2019-04-30T02:57:40.150Z,0.00
2019-04-30T02:58:40.934Z,0.00
2019-04-30T02:59:40.298Z,0.00
2019-04-30T03:00:39.351Z,0.00
2019-04-30T03:01:40.317Z,0.00
2019-04-30T03:02:39.555Z,0.00
2019-04-30T03:03:42.493Z,0.00
2019-04-30T03:04:39.654Z,0.00
2019-04-30T03:05:39.649Z,0.00
2019-04-30T03:06:40.465Z,0.00
2019-04-30T03:07:40.722Z,0.00
2019-04-30T03:08:40.502Z,0.00
2019-04-30T03:09:40.389Z,0.00
2019-04-30T03:10:40.596Z,0.00
2019-04-30T03:11:41.146Z,0.00
2019-04-30T03:12:40.960Z,0.00
2019-04-30T03:13:42.858Z,0.00
2019-04-30T03:14:41.313Z,0.00
2019-04-30T03:15:41.505Z,0.00
2019-04-30T03:16:41.691Z,0.00
2019-04-30T03:17:41.876Z,0.00
2019-04-30T03:18:42.055Z,0.00
2019-04-30T03:19:42.237Z,0.00
2019-04-30T03:20:42.417Z,0.00
2019-04-30T03:21:42.608Z,0.00
2019-04-30T03:22:42.795Z,0.00
2019-04-30T03:23:42.973Z,0.00
2019-04-30T03:24:43.221Z,0.00
2019-04-30T03:25:43.347Z,0.00
2019-04-30T03:26:43.538Z,0.00
2019-04-30T03:27:43.719Z,0.00
2019-04-30T03:28:43.905Z,0.00
2019-04-30T03:29:44.092Z,0.00
2019-04-30T03:30:44.278Z,0.00
2019-04-30T03:31:45.589Z,0.00
2019-04-30T03:32:50.787Z,0.00
2019-04-30T03:33:44.815Z,0.00
2019-04-30T03:34:45.012Z,0.00
2019-04-30T03:35:47.808Z,0.00
2019-04-30T03:36:45.367Z,0.00
2019-04-30T03:37:45.545Z,0.00
2019-04-30T03:38:45.742Z,0.00
2019-04-30T03:39:45.926Z,0.00
2019-04-30T03:40:46.108Z,0.00
2019-04-30T03:41:46.291Z,0.00
2019-04-30T03:42:49.288Z,5.63
2019-04-30T03:43:46.672Z,5.63
2019-04-30T03:44:49.423Z,5.63
2019-04-30T03:45:49.727Z,5.63
2019-04-30T03:46:49.806Z,5.63
2019-04-30T03:47:50.233Z,11.25
2019-04-30T03:48:50.185Z,11.25
2019-04-30T03:49:49.934Z,11.25
2019-04-30T03:50:53.406Z,11.25
2019-04-30T03:51:49.890Z,16.88
2019-04-30T03:52:50.403Z,16.88
2019-04-30T03:53:50.102Z,16.88
2019-04-30T03:54:49.429Z,22.50
2019-04-30T03:55:50.532Z,22.50
2019-04-30T03:56:50.251Z,28.13
2019-04-30T03:57:51.978Z,28.13
2019-04-30T03:58:50.323Z,33.75
2019-04-30T03:59:50.072Z,33.75
2019-04-30T04:00:50.303Z,39.38
2019-04-30T04:01:50.038Z,39.38
2019-04-30T04:02:50.360Z,45.00
2019-04-30T04:03:50.336Z,50.63
2019-04-30T04:04:52.654Z,50.63
2019-04-30T04:05:50.710Z,56.25
2019-04-30T04:06:50.897Z,61.88
2019-04-30T04:07:53.143Z,67.50
2019-04-30T04:08:51.267Z,73.13
2019-04-30T04:09:51.448Z,78.75
2019-04-30T04:10:53.008Z,84.38
2019-04-30T04:11:51.823Z,84.38
2019-04-30T04:12:52.003Z,90.00
2019-04-30T04:13:52.195Z,95.63
2019-04-30T04:14:52.376Z,101.25
2019-04-30T04:15:52.578Z,106.88
2019-04-30T04:16:52.737Z,118.13
2019-04-30T04:17:52.926Z,123.75
2019-04-30T04:18:53.112Z,129.38
2019-04-30T04:19:53.295Z,140.63
2019-04-30T04:21:07.455Z,146.25
2019-04-30T04:21:53.661Z,151.88
2019-04-30T04:22:53.843Z,157.50
2019-04-30T04:23:54.028Z,163.13
2019-04-30T04:24:54.226Z,168.75
2019-04-30T04:25:54.398Z,174.38
2019-04-30T04:26:54.585Z,180.00
2019-04-30T04:27:54.767Z,185.63
2019-04-30T04:28:54.951Z,202.50
2019-04-30T04:29:55.123Z,202.50
2019-04-30T04:30:55.323Z,208.13
2019-04-30T04:31:55.503Z,213.75
2019-04-30T04:32:55.699Z,213.75
2019-04-30T04:33:55.881Z,219.38
2019-04-30T04:34:56.077Z,253.13
2019-04-30T04:35:56.254Z,264.38
2019-04-30T04:36:56.443Z,275.63
2019-04-30T04:37:56.621Z,298.13
2019-04-30T04:38:56.812Z,337.50
2019-04-30T04:39:59.329Z,376.88
2019-04-30T04:41:02.615Z,371.25
2019-04-30T04:41:59.785Z,399.38
2019-04-30T04:43:00.072Z,382.50
2019-04-30T04:44:00.130Z,388.13
2019-04-30T04:44:59.571Z,461.25
2019-04-30T04:45:59.475Z,466.88
2019-04-30T04:47:00.151Z,444.38
2019-04-30T04:48:00.017Z,466.88
2019-04-30T04:48:59.626Z,528.75
2019-04-30T04:50:00.657Z,646.88
2019-04-30T04:51:00.057Z,455.63
2019-04-30T04:51:59.351Z,843.75
2019-04-30T04:52:59.609Z,562.50
2019-04-30T04:54:00.111Z,855.00
2019-04-30T04:55:00.546Z,658.13
2019-04-30T04:56:00.123Z,984.38
2019-04-30T04:57:14.000Z,1018.13
2019-04-30T04:58:00.357Z,815.63
2019-04-30T04:59:00.545Z,1068.75
2019-04-30T05:00:07.110Z,860.63
2019-04-30T05:01:00.921Z,1085.63
2019-04-30T05:02:01.111Z,1170.00
2019-04-30T05:03:01.346Z,1141.88
2019-04-30T05:04:01.480Z,1265.63
2019-04-30T05:05:01.670Z,1327.50
2019-04-30T05:06:02.694Z,1147.50
2019-04-30T05:07:02.051Z,1440.00
2019-04-30T05:08:02.229Z,1485.00
2019-04-30T05:09:02.442Z,1546.88
2019-04-30T05:10:02.604Z,978.75
2019-04-30T05:11:02.804Z,1462.50
2019-04-30T05:12:02.985Z,1507.50
2019-04-30T05:13:03.185Z,1535.63
2019-04-30T05:14:03.358Z,1648.13
2019-04-30T05:15:03.562Z,939.38
2019-04-30T05:16:03.764Z,1693.13
2019-04-30T05:17:03.941Z,1693.13
2019-04-30T05:18:04.141Z,1670.63
2019-04-30T05:19:04.328Z,1732.50
2019-04-30T05:20:04.515Z,1800.00
2019-04-30T05:21:04.716Z,1895.63
2019-04-30T05:22:04.894Z,1873.13
2019-04-30T05:23:05.085Z,1929.38
2019-04-30T05:24:05.266Z,1957.50
2019-04-30T05:25:05.465Z,2030.63
2019-04-30T05:26:05.665Z,2058.75
2019-04-30T05:27:05.859Z,2019.38
2019-04-30T05:28:06.069Z,1417.50
2019-04-30T05:29:06.280Z,2233.13
2019-04-30T05:30:06.470Z,2272.50
2019-04-30T05:31:08.671Z,2300.63
2019-04-30T05:32:06.854Z,2261.25
2019-04-30T05:33:08.719Z,2396.25
2019-04-30T05:34:10.071Z,2356.88
2019-04-30T05:35:09.381Z,2463.75
2019-04-30T05:36:09.249Z,2531.25
2019-04-30T05:37:09.038Z,2525.63
2019-04-30T05:38:09.285Z,2531.25
2019-04-30T05:39:08.691Z,2638.13
2019-04-30T05:40:09.217Z,2587.50
2019-04-30T05:41:09.345Z,2705.63
2019-04-30T05:42:08.872Z,2694.38
2019-04-30T05:43:11.231Z,2846.25
2019-04-30T05:44:09.255Z,2863.13
2019-04-30T05:45:09.605Z,2767.50
2019-04-30T05:46:11.038Z,2913.75
2019-04-30T05:47:09.787Z,2953.13
2019-04-30T05:48:09.979Z,2981.25
2019-04-30T05:49:10.182Z,3031.88
2019-04-30T05:50:10.381Z,3093.75
2019-04-30T05:51:10.576Z,3155.63
2019-04-30T05:52:11.647Z,3127.50
2019-04-30T05:53:10.974Z,3183.75
2019-04-30T05:54:11.168Z,3183.75
2019-04-30T05:55:11.367Z,3206.25
2019-04-30T05:56:11.562Z,3279.38
2019-04-30T05:57:11.772Z,3262.50
2019-04-30T05:58:11.966Z,3296.25
2019-04-30T05:59:12.174Z,3178.13
2019-04-30T06:00:12.379Z,2829.38
2019-04-30T06:01:12.577Z,3116.25
2019-04-30T06:02:12.770Z,3031.88
2019-04-30T06:03:24.950Z,3020.63
2019-04-30T06:04:13.153Z,3003.75
2019-04-30T06:05:13.355Z,3048.75
2019-04-30T06:06:13.550Z,3048.75
2019-04-30T06:07:13.746Z,3155.63
2019-04-30T06:08:13.938Z,3318.75
2019-04-30T06:09:22.567Z,3414.38
2019-04-30T06:10:14.329Z,3594.38
2019-04-30T06:11:14.525Z,3633.75
2019-04-30T06:12:14.720Z,3751.88
2019-04-30T06:13:14.922Z,3740.63
2019-04-30T06:14:15.120Z,3785.63
2019-04-30T06:15:15.314Z,3785.63
2019-04-30T06:16:15.518Z,3909.38
2019-04-30T06:17:15.717Z,3903.75
2019-04-30T06:18:15.914Z,3954.38
2019-04-30T06:19:16.110Z,3937.50
2019-04-30T06:20:19.184Z,3954.38
2019-04-30T06:21:16.501Z,4021.88
2019-04-30T06:22:16.697Z,4038.75
2019-04-30T06:23:16.905Z,4033.13
2019-04-30T06:24:18.767Z,4055.63
2019-04-30T06:25:30.566Z,4111.88
2019-04-30T06:26:20.465Z,4106.25
2019-04-30T06:27:19.147Z,4078.13
2019-04-30T06:28:19.505Z,4173.75
2019-04-30T06:29:18.981Z,4275.00
2019-04-30T06:30:19.815Z,4230.00
2019-04-30T06:31:31.260Z,4314.38
2019-04-30T06:32:18.842Z,4269.38
2019-04-30T06:33:19.319Z,4348.13
2019-04-30T06:34:19.785Z,4443.75
2019-04-30T06:35:19.479Z,4376.25
2019-04-30T06:36:19.503Z,4398.75
2019-04-30T06:37:19.680Z,4488.75
2019-04-30T06:38:19.875Z,4466.25
2019-04-30T06:39:20.074Z,4460.63
2019-04-30T06:40:20.274Z,4556.25
2019-04-30T06:41:20.476Z,4573.13
2019-04-30T06:42:20.680Z,4657.50
2019-04-30T06:43:20.874Z,4629.38
2019-04-30T06:44:21.074Z,4674.38
2019-04-30T06:45:21.273Z,4708.13
2019-04-30T06:46:21.470Z,4691.25
2019-04-30T06:47:32.333Z,4775.63
2019-04-30T06:48:21.871Z,4753.13
2019-04-30T06:49:22.070Z,4837.50
2019-04-30T06:50:22.272Z,4820.63
2019-04-30T06:51:22.464Z,4860.00
2019-04-30T06:52:23.697Z,4831.88
2019-04-30T06:53:22.862Z,4905.00
2019-04-30T06:54:23.061Z,4921.88
2019-04-30T06:55:23.282Z,4983.75
2019-04-30T06:56:23.454Z,5011.88
2019-04-30T06:57:23.654Z,4966.88
2019-04-30T06:58:23.844Z,5051.25
2019-04-30T06:59:24.042Z,5096.25
2019-04-30T07:00:32.914Z,5107.50
2019-04-30T07:01:24.442Z,5130.00
2019-04-30T07:02:24.642Z,5180.63
2019-04-30T07:03:24.842Z,5203.13
2019-04-30T07:04:25.041Z,5220.00
2019-04-30T07:05:25.236Z,5220.00
2019-04-30T07:06:29.848Z,5231.25
2019-04-30T07:07:36.279Z,5225.63
2019-04-30T07:08:36.297Z,5321.25
2019-04-30T07:09:26.712Z,5338.13
2019-04-30T07:10:26.233Z,5338.13
2019-04-30T07:11:26.441Z,5388.75
2019-04-30T07:12:29.876Z,5338.13
2019-04-30T07:13:26.849Z,5405.63
2019-04-30T07:14:27.055Z,5439.38
2019-04-30T07:15:27.253Z,5428.13
2019-04-30T07:16:29.666Z,5456.25
2019-04-30T07:17:29.222Z,5439.38
2019-04-30T07:18:28.878Z,5478.75
2019-04-30T07:19:34.609Z,5506.88
2019-04-30T07:20:29.158Z,5523.75
2019-04-30T07:21:31.199Z,5602.50
2019-04-30T07:22:39.492Z,5608.13
2019-04-30T07:23:28.849Z,5630.63
2019-04-30T07:24:29.594Z,5681.25
2019-04-30T07:25:29.420Z,5625.00
2019-04-30T07:26:29.463Z,5647.50
2019-04-30T07:27:31.929Z,5681.25
2019-04-30T07:28:43.263Z,5686.88
2019-04-30T07:29:30.060Z,5686.88
2019-04-30T07:30:30.927Z,5731.88
2019-04-30T07:31:30.473Z,5720.63
2019-04-30T07:32:30.688Z,5731.88
2019-04-30T07:33:30.875Z,5715.00
2019-04-30T07:34:36.567Z,5737.50
2019-04-30T07:35:31.277Z,5737.50
2019-04-30T07:36:45.334Z,5748.75
2019-04-30T07:37:31.675Z,5754.38
2019-04-30T07:38:35.841Z,5709.38
2019-04-30T07:39:33.508Z,5776.88
2019-04-30T07:40:32.283Z,5838.75
2019-04-30T07:41:32.489Z,5878.13
2019-04-30T07:42:36.980Z,5945.63
2019-04-30T07:43:32.886Z,5956.88
2019-04-30T07:44:36.519Z,5956.88
2019-04-30T07:45:33.333Z,5962.50
2019-04-30T07:46:35.370Z,5923.13
2019-04-30T07:47:33.695Z,5889.38
2019-04-30T07:48:33.894Z,5906.25
2019-04-30T07:49:47.003Z,5895.00
2019-04-30T07:50:34.832Z,5866.88
2019-04-30T07:51:37.867Z,5872.50
2019-04-30T07:52:35.519Z,5945.63
2019-04-30T07:53:34.924Z,6001.88
2019-04-30T07:54:35.126Z,6063.75
2019-04-30T07:55:35.324Z,6091.88
2019-04-30T07:56:40.867Z,6148.13
2019-04-30T07:57:35.724Z,6181.88
2019-04-30T07:58:35.933Z,6204.38
2019-04-30T07:59:36.133Z,6142.50
2019-04-30T08:00:36.334Z,6108.75
2019-04-30T08:01:36.537Z,6063.75
2019-04-30T08:02:40.877Z,6013.13
2019-04-30T08:03:39.232Z,5956.88
2019-04-30T08:04:37.141Z,5821.88
2019-04-30T08:05:40.078Z,5788.13
2019-04-30T08:06:39.533Z,5720.63
2019-04-30T08:07:39.164Z,5630.63
2019-04-30T08:08:40.548Z,5720.63
2019-04-30T08:09:41.540Z,5715.00
2019-04-30T08:10:39.382Z,5754.38
2019-04-30T08:11:41.910Z,5827.50
2019-04-30T08:12:42.727Z,5968.13
2019-04-30T08:13:40.756Z,6013.13
2019-04-30T08:14:39.184Z,6058.13
2019-04-30T08:15:42.148Z,6041.25
2019-04-30T08:16:39.589Z,6131.25
2019-04-30T08:17:39.794Z,6176.25
2019-04-30T08:18:39.988Z,6170.63
2019-04-30T08:19:41.136Z,6215.63
2019-04-30T08:20:40.395Z,6187.50
2019-04-30T08:21:40.598Z,6181.88
2019-04-30T08:22:41.098Z,6238.13
2019-04-30T08:23:40.999Z,6260.63
2019-04-30T08:24:41.196Z,6238.13
2019-04-30T08:25:41.401Z,6266.25
2019-04-30T08:26:41.601Z,6316.88
2019-04-30T08:27:41.808Z,6277.50
2019-04-30T08:28:42.020Z,6198.75
2019-04-30T08:29:42.219Z,6210.00
2019-04-30T08:30:42.421Z,6238.13
2019-04-30T08:31:42.621Z,6277.50
2019-04-30T08:32:42.819Z,6204.38
2019-04-30T08:33:43.022Z,6170.63
2019-04-30T08:34:43.225Z,6080.63
2019-04-30T08:35:43.428Z,6058.13
2019-04-30T08:36:43.636Z,6136.88
2019-04-30T08:37:43.840Z,6142.50
2019-04-30T08:38:44.037Z,6024.38
2019-04-30T08:39:44.241Z,5940.00
2019-04-30T08:40:55.881Z,5990.63
2019-04-30T08:41:44.645Z,6007.50
2019-04-30T08:42:44.845Z,5962.50
2019-04-30T08:43:45.049Z,6018.75
2019-04-30T08:44:45.248Z,5968.13
2019-04-30T08:45:45.453Z,6013.13
2019-04-30T08:46:45.658Z,6187.50
2019-04-30T08:47:45.858Z,6204.38
2019-04-30T08:48:50.816Z,6153.75
2019-04-30T08:49:46.403Z,6120.00
2019-04-30T08:50:46.569Z,6091.88
2019-04-30T08:51:48.846Z,6120.00
2019-04-30T08:52:46.871Z,6097.50
2019-04-30T08:53:48.661Z,6001.88
2019-04-30T08:54:49.436Z,6030.00
2019-04-30T08:55:49.207Z,6001.88
2019-04-30T08:56:47.696Z,5968.13
2019-04-30T08:57:49.856Z,5996.25
2019-04-30T08:58:49.055Z,5934.38
2019-04-30T08:59:49.481Z,5996.25
2019-04-30T09:00:48.654Z,6080.63
2019-04-30T09:01:48.798Z,6114.38
2019-04-30T09:02:49.290Z,6159.38
2019-04-30T09:03:51.214Z,6153.75
2019-04-30T09:04:49.495Z,6170.63
2019-04-30T09:05:49.982Z,6153.75
2019-04-30T09:06:49.782Z,6069.38
2019-04-30T09:07:49.902Z,6041.25
2019-04-30T09:08:50.103Z,5923.13
2019-04-30T09:09:50.302Z,5906.25
2019-04-30T09:10:50.508Z,5861.25
2019-04-30T09:11:55.416Z,5855.63
2019-04-30T09:12:51.945Z,5917.50
2019-04-30T09:13:51.123Z,5945.63
2019-04-30T09:14:51.322Z,5973.75
2019-04-30T09:15:51.524Z,6041.25
2019-04-30T09:16:51.761Z,6080.63
2019-04-30T09:18:00.757Z,6108.75
2019-04-30T09:18:52.128Z,6153.75
2019-04-30T09:19:52.331Z,6170.63
2019-04-30T09:20:52.525Z,6159.38
2019-04-30T09:21:52.733Z,6210.00
2019-04-30T09:22:52.931Z,6221.25
2019-04-30T09:23:53.132Z,6266.25
2019-04-30T09:24:53.335Z,6159.38
2019-04-30T09:25:53.535Z,6153.75
2019-04-30T09:26:53.741Z,6165.00
2019-04-30T09:27:53.942Z,6148.13
2019-04-30T09:28:54.142Z,6136.88
2019-04-30T09:29:54.345Z,6120.00
2019-04-30T09:30:54.549Z,6080.63
2019-04-30T09:31:54.747Z,6035.63
2019-04-30T09:32:54.945Z,6046.88
2019-04-30T09:33:57.876Z,6035.63
2019-04-30T09:34:55.348Z,5985.00
2019-04-30T09:35:55.555Z,5940.00
2019-04-30T09:36:56.041Z,5838.75
2019-04-30T09:38:01.147Z,5816.25
2019-04-30T09:38:56.194Z,5771.25
2019-04-30T09:39:56.395Z,5765.63
2019-04-30T09:40:56.601Z,5765.63
2019-04-30T09:41:56.799Z,5827.50
2019-04-30T09:42:58.552Z,5821.88
2019-04-30T09:43:57.204Z,5827.50
2019-04-30T09:44:59.637Z,5866.88
2019-04-30T09:45:59.289Z,5878.13
2019-04-30T09:46:58.832Z,5906.25
2019-04-30T09:47:59.259Z,5928.75
2019-04-30T09:48:59.728Z,5956.88
2019-04-30T09:49:59.680Z,5940.00
2019-04-30T09:51:00.823Z,5962.50
2019-04-30T09:51:59.498Z,5962.50
2019-04-30T09:53:00.221Z,5928.75
2019-04-30T09:54:02.245Z,5850.00
2019-04-30T09:54:59.869Z,5844.38
2019-04-30T09:55:59.752Z,5838.75
2019-04-30T09:56:59.816Z,5838.75
2019-04-30T09:58:00.019Z,5855.63
2019-04-30T09:59:00.217Z,5833.13
2019-04-30T10:00:00.646Z,5816.25
2019-04-30T10:01:00.626Z,5765.63
2019-04-30T10:02:00.821Z,5793.75
2019-04-30T10:03:01.251Z,5771.25
2019-04-30T10:04:01.625Z,5731.88
2019-04-30T10:05:01.839Z,5675.63
2019-04-30T10:06:01.621Z,5630.63
2019-04-30T10:07:01.823Z,5563.13
2019-04-30T10:08:02.020Z,5484.38
2019-04-30T10:09:02.225Z,5405.63
2019-04-30T10:10:02.429Z,5394.38
2019-04-30T10:11:02.624Z,5332.50
2019-04-30T10:12:02.825Z,5281.88
2019-04-30T10:13:03.033Z,5287.50
2019-04-30T10:14:03.232Z,5281.88
2019-04-30T10:15:03.435Z,5276.25
2019-04-30T10:16:03.635Z,5310.00
2019-04-30T10:17:03.834Z,5371.88
2019-04-30T10:18:04.054Z,5388.75
2019-04-30T10:19:04.255Z,5377.50
2019-04-30T10:20:04.450Z,5371.88
2019-04-30T10:21:04.653Z,5377.50
2019-04-30T10:22:04.858Z,5394.38
2019-04-30T10:23:05.065Z,5321.25
2019-04-30T10:24:14.756Z,5231.25
2019-04-30T10:25:05.467Z,5090.63
2019-04-30T10:26:05.676Z,4938.75
2019-04-30T10:27:10.502Z,4854.38
2019-04-30T10:28:06.078Z,4770.00
2019-04-30T10:29:06.295Z,4736.25
2019-04-30T10:30:06.465Z,4691.25
2019-04-30T10:31:06.670Z,4696.88
2019-04-30T10:32:08.717Z,4775.63
2019-04-30T10:33:07.068Z,4882.50
2019-04-30T10:34:07.266Z,4933.13
2019-04-30T10:35:07.462Z,4966.88
2019-04-30T10:36:09.353Z,4989.38
2019-04-30T10:37:08.997Z,5000.63
2019-04-30T10:38:09.859Z,4950.00
2019-04-30T10:39:08.292Z,4938.75
2019-04-30T10:40:10.281Z,4882.50
2019-04-30T10:41:08.938Z,4882.50
2019-04-30T10:42:08.883Z,4854.38
2019-04-30T10:43:09.218Z,4876.88
2019-04-30T10:44:09.294Z,4843.13
2019-04-30T10:45:09.957Z,4831.88
2019-04-30T10:46:09.869Z,4775.63
2019-04-30T10:47:09.892Z,4770.00
2019-04-30T10:48:10.096Z,4719.38
2019-04-30T10:49:10.313Z,4702.50
2019-04-30T10:50:10.493Z,4674.38
2019-04-30T10:51:10.701Z,4674.38
2019-04-30T10:52:10.906Z,4635.00
2019-04-30T10:53:12.508Z,4601.25
2019-04-30T10:54:23.231Z,4561.88
2019-04-30T10:55:11.519Z,4533.75
2019-04-30T10:56:11.810Z,4511.25
2019-04-30T10:57:11.918Z,4511.25
2019-04-30T10:58:12.125Z,4505.63
2019-04-30T10:59:12.327Z,4455.00
2019-04-30T11:00:12.530Z,4415.63
2019-04-30T11:01:12.732Z,4387.50
2019-04-30T11:02:12.924Z,4263.75
2019-04-30T11:03:20.063Z,3217.50
2019-04-30T11:04:13.335Z,1906.88
2019-04-30T11:05:13.532Z,1102.50
2019-04-30T11:06:13.731Z,1080.00
2019-04-30T11:07:13.933Z,1068.75
2019-04-30T11:08:14.125Z,1057.50
2019-04-30T11:09:14.327Z,1057.50
2019-04-30T11:10:14.518Z,1046.25
2019-04-30T11:11:14.714Z,1040.63
2019-04-30T11:12:14.910Z,1035.00
2019-04-30T11:13:15.109Z,1029.38
2019-04-30T11:14:15.311Z,1029.38
2019-04-30T11:15:15.505Z,1029.38
2019-04-30T11:16:15.790Z,1023.75
2019-04-30T11:17:16.062Z,1023.75
2019-04-30T11:18:16.307Z,1023.75
2019-04-30T11:19:16.411Z,1023.75
2019-04-30T11:20:16.659Z,1029.38
2019-04-30T11:21:16.895Z,1023.75
2019-04-30T11:22:17.077Z,1029.38
2019-04-30T11:23:17.259Z,1029.38
2019-04-30T11:24:19.297Z,1023.75
2019-04-30T11:25:19.607Z,1018.13
2019-04-30T11:26:18.363Z,1018.13
2019-04-30T11:27:20.271Z,1006.88
2019-04-30T11:28:18.497Z,1001.25
2019-04-30T11:29:18.348Z,1006.88
2019-04-30T11:30:23.598Z,990.00
2019-04-30T11:31:18.924Z,984.38
2019-04-30T11:32:19.009Z,978.75
2019-04-30T11:33:19.166Z,973.13
2019-04-30T11:34:19.218Z,967.50
2019-04-30T11:35:20.753Z,967.50
2019-04-30T11:36:19.621Z,961.88
2019-04-30T11:37:19.804Z,956.25
2019-04-30T11:38:20.522Z,950.63
2019-04-30T11:39:20.190Z,945.00
2019-04-30T11:40:31.231Z,945.00
2019-04-30T11:41:30.053Z,939.38
2019-04-30T11:42:20.807Z,933.75
2019-04-30T11:43:20.988Z,933.75
2019-04-30T11:44:30.326Z,928.13
2019-04-30T11:45:21.382Z,922.50
2019-04-30T11:46:21.573Z,916.88
2019-04-30T11:47:21.775Z,916.88
2019-04-30T11:48:21.968Z,911.25
2019-04-30T11:49:22.166Z,911.25
2019-04-30T11:50:22.366Z,911.25
2019-04-30T11:51:22.558Z,905.63
2019-04-30T11:52:22.750Z,905.63
2019-04-30T11:53:27.847Z,905.63
2019-04-30T11:54:23.134Z,900.00
2019-04-30T11:55:23.334Z,900.00
2019-04-30T11:56:23.530Z,900.00
2019-04-30T11:57:23.733Z,900.00
2019-04-30T11:58:23.935Z,894.38
2019-04-30T11:59:24.127Z,894.38
2019-04-30T12:00:24.317Z,888.75
2019-04-30T12:01:24.524Z,883.13
2019-04-30T12:02:24.725Z,883.13
2019-04-30T12:03:24.919Z,877.50
2019-04-30T12:04:25.119Z,871.88
2019-04-30T12:05:25.311Z,871.88
2019-04-30T12:06:25.506Z,871.88
2019-04-30T12:07:25.699Z,866.25
2019-04-30T12:08:26.565Z,866.25
2019-04-30T12:09:26.078Z,860.63
2019-04-30T12:10:26.270Z,860.63
2019-04-30T12:11:26.461Z,860.63
2019-04-30T12:12:26.662Z,855.00
2019-04-30T12:13:26.854Z,855.00
2019-04-30T12:14:27.052Z,855.00
2019-04-30T12:15:29.025Z,849.38
2019-04-30T12:16:28.557Z,849.38
2019-04-30T12:17:27.638Z,843.75
2019-04-30T12:18:27.838Z,843.75
2019-04-30T12:19:28.676Z,843.75
2019-04-30T12:20:28.234Z,843.75
2019-04-30T12:21:28.422Z,843.75
2019-04-30T12:22:29.652Z,849.38
2019-04-30T12:23:28.788Z,849.38
2019-04-30T12:24:30.421Z,866.25
2019-04-30T12:25:30.415Z,871.88
2019-04-30T12:26:29.386Z,759.38
2019-04-30T12:27:29.583Z,832.50
2019-04-30T12:28:29.831Z,855.00
2019-04-30T12:29:29.969Z,843.75
2019-04-30T12:30:30.158Z,843.75
2019-04-30T12:31:30.349Z,826.88
2019-04-30T12:32:30.542Z,821.25
2019-04-30T12:33:30.740Z,826.88